tititudorancea.com
Station Historical Data
Daily Summary for January 30, 2019 Units:  Metric    English   Both
« Previous Day
Next Day »
Daily Weekly Monthly Yearly Custom
  High: Low: Average:
Temperature: -17.8 °C 11.1 °C 24 °C
Dew Point: -17.8 °C 5.3 °C 9.6 °C
Humidity: Humidity % 16 % 49 %
Wind Speed: 0 km/h 0 km/h 13.8 km/h
Wind Gust: 0 km/h - -
Wind:- - WSW
Pressure: 0 hPa 996.8 hPa -
Precipitation: 0 mm    
Historical Graphs
 
 
Ararat weather Find more about Weather in Ararat, AU


 



 


Tabular Data for January 30, 2019
Time Temperature Dew Point Pressure Wind Wind Speed Wind Gust Humidity Rainfall Rate (Hourly)
-17.8 °C -17.8 °C 0 hPa Calm     Humidity % 0 mm
00:04 17.8 °C 12.9 °C 1009.4 hPa South 11.1 km/h 7.6 km/h 73 % 0 mm
00:09 17.7 °C 12.8 °C 1009.4 hPa South 8 km/h 6 km/h 73 % 0 mm
00:14 17.7 °C 12.8 °C 1009.4 hPa South 13 km/h 9.7 km/h 73 % 0 mm
00:19 17.7 °C 12.8 °C 1009.4 hPa South 9.3 km/h 5.3 km/h 73 % 0 mm
00:24 17.6 °C 12.9 °C 1009.4 hPa South 9.3 km/h 6.1 km/h 74 % 0 mm
00:29 17.6 °C 12.9 °C 1009 hPa South 11.1 km/h 7.9 km/h 74 % 0 mm
00:34 17.5 °C 12.8 °C 1009 hPa South 5.6 km/h 4 km/h 74 % 0 mm
00:39 17.4 °C 12.7 °C 1009 hPa South 5.6 km/h 4.8 km/h 74 % 0 mm
00:44 17.3 °C 12.7 °C 1009 hPa North 7.4 km/h 3.5 km/h 74 % 0 mm
00:49 17.2 °C 12.6 °C 1009 hPa South 7.4 km/h 3.5 km/h 74 % 0 mm
00:54 17.2 °C 12.7 °C 1009 hPa South 5.6 km/h 3.5 km/h 75 % 0 mm
00:59 17.1 °C 12.6 °C 1009 hPa South 5.6 km/h 3.5 km/h 75 % 0 mm
01:04 16.9 °C 12.4 °C 1008.7 hPa South 7.4 km/h 4.8 km/h 75 % 0 mm
01:09 16.7 °C 12.4 °C 1008.7 hPa South 8 km/h 6.6 km/h 76 % 0 mm
01:14 16.6 °C 12.6 °C 1008.7 hPa South 11.1 km/h 7.6 km/h 77 % 0 mm
01:19 16.6 °C 12.6 °C 1008.7 hPa North 9.3 km/h 6.6 km/h 77 % 0 mm
01:24 16.6 °C 12.5 °C 1008.7 hPa South 5.6 km/h 4.8 km/h 77 % 0 mm
01:29 16.5 °C 12.7 °C 1008.7 hPa South 6.4 km/h 5.1 km/h 78 % 0 mm
01:34 16.5 °C 12.7 °C 1008.4 hPa South 5.6 km/h 2.4 km/h 78 % 0 mm
01:39 16.5 °C 12.7 °C 1008.4 hPa South 7.4 km/h 4.5 km/h 78 % 0 mm
01:44 16.4 °C 12.6 °C 1008.4 hPa South 5.6 km/h 6.1 km/h 78 % 0 mm
01:49 16.4 °C 12.6 °C 1008.4 hPa South 6.4 km/h 5.3 km/h 78 % 0 mm
01:54 16.3 °C 12.4 °C 1008.4 hPa South 5.6 km/h 4.2 km/h 78 % 0 mm
01:59 16.2 °C 12.6 °C 1008.4 hPa South 7.4 km/h 5.6 km/h 79 % 0 mm
02:04 16.2 °C 12.5 °C 1008 hPa South 6.4 km/h 4.3 km/h 79 % 0 mm
02:09 16.1 °C 12.4 °C 1008.4 hPa South 7.4 km/h 5.5 km/h 79 % 0 mm
02:14 16.1 °C 12.6 °C 1008 hPa South 9.3 km/h 6.6 km/h 80 % 0 mm
02:19 16 °C 12.6 °C 1008 hPa South 5.6 km/h 4.2 km/h 80 % 0 mm
02:24 15.9 °C 12.5 °C 1008 hPa South 5.6 km/h 3.7 km/h 80 % 0 mm
02:29 15.9 °C 12.4 °C 1007.7 hPa South 5.6 km/h 5 km/h 80 % 0 mm
02:34 15.8 °C 12.4 °C 1007.7 hPa South 7.4 km/h 5.3 km/h 80 % 0 mm
02:39 15.8 °C 12.5 °C 1007.7 hPa South 5.6 km/h 3.9 km/h 81 % 0 mm
02:44 15.8 °C 12.3 °C 1007.7 hPa South 5.6 km/h 2.4 km/h 80 % 0 mm
02:49 15.7 °C 12.4 °C 1007.3 hPa South 7.4 km/h 4.3 km/h 81 % 0 mm
02:54 15.6 °C 12.3 °C 1007.3 hPa South 7.4 km/h 4.3 km/h 81 % 0 mm
02:59 15.6 °C 12.3 °C 1007.3 hPa Calm     81 % 0 mm
03:04 15.5 °C 12.3 °C 1007.3 hPa Calm     81 % 0 mm
03:09 15.4 °C 12.2 °C 1007.3 hPa Calm     81 % 0 mm
03:14 15.3 °C 12.2 °C 1007 hPa Calm     82 % 0 mm
03:19 15.2 °C 12.2 °C 1007 hPa Calm     82 % 0 mm
03:24 15.1 °C 12.1 °C 1007 hPa Calm     82 % 0 mm
03:29 14.9 °C 12.1 °C 1007 hPa Calm     83 % 0 mm
03:34 14.8 °C 11.7 °C 1006.7 hPa Calm     82 % 0 mm
03:39 14.6 °C 11.9 °C 1006.7 hPa Calm     84 % 0 mm
03:44 14.6 °C 11.9 °C 1006.7 hPa Calm     84 % 0 mm
03:49 14.4 °C 11.8 °C 1006.7 hPa Calm     84 % 0 mm
03:54 14.4 °C 11.9 °C 1006.7 hPa North 5.6 km/h 3.2 km/h 85 % 0 mm
03:59 14.3 °C 11.8 °C 1006.7 hPa Calm     85 % 0 mm
04:04 14.2 °C 11.9 °C 1006.7 hPa Calm     86 % 0 mm
04:09 14.2 °C 11.8 °C 1006.3 hPa Calm     86 % 0 mm
04:14 14.1 °C 11.7 °C 1006.3 hPa Calm     86 % 0 mm
04:19 13.9 °C 11.6 °C 1006.3 hPa Calm     86 % 0 mm
04:24 13.7 °C 11.4 °C 1006.3 hPa Calm     86 % 0 mm
04:29 13.5 °C 11.2 °C 1006.3 hPa Calm     86 % 0 mm
04:34 13.5 °C 11.6 °C 1006.3 hPa Calm     88 % 0 mm
04:39 13.4 °C 11.3 °C 1006.3 hPa Calm     87 % 0 mm
04:44 13.3 °C 11.2 °C 1006.3 hPa Calm     87 % 0 mm
04:49 13 °C 10.9 °C 1006.3 hPa Calm     87 % 0 mm
04:54 13.1 °C 11.1 °C 1006.3 hPa Calm     88 % 0 mm
04:59 12.9 °C 11 °C 1006 hPa Calm     88 % 0 mm
05:04 12.8 °C 10.9 °C 1006 hPa Calm     88 % 0 mm
05:09 12.9 °C 11.1 °C 1006 hPa South 5.6 km/h 4.7 km/h 89 % 0 mm
05:14 12.9 °C 11.2 °C 1006.3 hPa South 5.6 km/h 2.6 km/h 89 % 0 mm
05:19 12.9 °C 11.1 °C 1006.3 hPa South 3.7 km/h 0.8 km/h 89 % 0 mm
05:24 12.7 °C 10.9 °C 1006.3 hPa Calm     89 % 0 mm
05:29 12.7 °C 10.9 °C 1006.3 hPa Calm     89 % 0 mm
05:34 12.6 °C 10.8 °C 1006.3 hPa Calm     89 % 0 mm
05:39 12.5 °C 10.7 °C 1006.3 hPa Calm     89 % 0 mm
05:44 12.6 °C 10.9 °C 1006.3 hPa Calm     90 % 0 mm
05:49 12.6 °C 11 °C 1006.3 hPa Calm     90 % 0 mm
05:54 12.4 °C 10.6 °C 1006.3 hPa Calm     89 % 0 mm
05:59 12.2 °C 10.6 °C 1006.3 hPa Calm     90 % 0 mm
06:04 12.2 °C 10.6 °C 1006.3 hPa Calm     90 % 0 mm
06:09 12.1 °C 10.5 °C 1006.3 hPa Calm     90 % 0 mm
06:14 12.1 °C 10.4 °C 1006.3 hPa Calm     90 % 0 mm
06:19 12.1 °C 10.4 °C 1006.3 hPa Calm     90 % 0 mm
06:24 12 °C 10.6 °C 1006.3 hPa Calm     91 % 0 mm
06:29 11.9 °C 10.3 °C 1006.3 hPa Calm     90 % 0 mm
06:34 11.9 °C 10.3 °C 1006.7 hPa Calm     90 % 0 mm
06:39 11.6 °C 10 °C 1006.3 hPa Calm     90 % 0 mm
06:44 11.4 °C 9.9 °C 1006.3 hPa Calm     90 % 0 mm
06:49 11.3 °C 9.7 °C 1006.7 hPa Calm     90 % 0 mm
06:54 11.2 °C 9.7 °C 1006.7 hPa Calm     90 % 0 mm
06:59 11.1 °C 9.6 °C 1006.7 hPa Calm     90 % 0 mm
07:04 11.1 °C 9.7 °C 1006.7 hPa Calm     91 % 0 mm
07:09 11.1 °C 9.7 °C 1006.7 hPa Calm     91 % 0 mm
07:14 11.1 °C 9.7 °C 1006.7 hPa Calm     91 % 0 mm
07:19 11.2 °C 9.9 °C 1006.7 hPa Calm     92 % 0 mm
07:24 11.3 °C 9.9 °C 1006.7 hPa Calm     91 % 0 mm
07:29 11.4 °C 10.1 °C 1006.7 hPa Calm     92 % 0 mm
07:34 11.7 °C 10.6 °C 1006.7 hPa Calm     93 % 0 mm
07:39 11.9 °C 10.8 °C 1006.7 hPa Calm     93 % 0 mm
07:44 12.2 °C 11.1 °C 1006.7 hPa Calm     93 % 0 mm
07:49 12.7 °C 11.6 °C 1006.7 hPa Calm     93 % 0 mm
07:54 13 °C 11.9 °C 1006.7 hPa South 1.6 km/h 0.2 km/h 93 % 0 mm
07:59 13.5 °C 12.4 °C 1006.3 hPa Calm     93 % 0 mm
08:04 14.1 °C 13 °C 1006.3 hPa Calm     93 % 0 mm
08:09 15.1 °C 13.9 °C 1006.3 hPa Calm     93 % 0 mm
08:14 15.9 °C 14.5 °C 1006.3 hPa Calm     91 % 0 mm
08:19 16.8 °C 14.2 °C 1006.3 hPa South 3.7 km/h 1.4 km/h 85 % 0 mm
08:24 17.8 °C 14.3 °C 1006.3 hPa South 3.2 km/h 1.3 km/h 80 % 0 mm
08:29 18.9 °C 13.5 °C 1006.3 hPa South 5.6 km/h 4 km/h 71 % 0 mm
08:34 19.9 °C 12.9 °C 1006.3 hPa South 5.6 km/h 2.4 km/h 64 % 0 mm
08:39 20.9 °C 12.1 °C 1006.3 hPa South 5.6 km/h 2.9 km/h 57 % 0 mm
08:44 22.1 °C 11.5 °C 1006.3 hPa South 7.4 km/h 7.4 km/h 51 % 0 mm
08:49 23.1 °C 10.5 °C 1006 hPa South 9.3 km/h 6 km/h 45 % 0 mm
08:54 23.8 °C 11.1 °C 1006 hPa South 5.6 km/h 4.7 km/h 45 % 0 mm
08:59 24.3 °C 10.9 °C 1006.3 hPa South 11.3 km/h 9 km/h 43 % 0 mm
09:04 24.7 °C 10.6 °C 1006.3 hPa South 11.1 km/h 7.1 km/h 41 % 0 mm
09:09 25 °C 10.1 °C 1006.3 hPa South 6.4 km/h 4 km/h 39 % 0 mm
09:14 25.4 °C 9.6 °C 1006 hPa South 7.4 km/h 5.6 km/h 37 % 0 mm
09:19 25.8 °C 9.2 °C 1006 hPa South 5.6 km/h 4.2 km/h 35 % 0 mm
09:24 26.4 °C 8.8 °C 1006 hPa South 9.3 km/h 5.1 km/h 33 % 0 mm
09:29 26.9 °C 9.7 °C 1006 hPa South 5.6 km/h 2.9 km/h 34 % 0 mm
09:34 27.4 °C 8.8 °C 1006 hPa South 6.4 km/h 5.5 km/h 31 % 0 mm
09:39 27.8 °C 8.1 °C 1006 hPa South 7.4 km/h 5.5 km/h 29 % 0 mm
09:44 28.3 °C 7.5 °C 1006 hPa South 5.6 km/h 6.3 km/h 27 % 0 mm
09:49 28.8 °C 6.2 °C 1006 hPa SW 11.3 km/h 8.7 km/h 24 % 0 mm
09:54 29 °C 5.8 °C 1005.6 hPa WNW 14.8 km/h 8 km/h 23 % 0 mm
09:59 29.4 °C 6.1 °C 1005.6 hPa WNW 11.3 km/h 7.7 km/h 23 % 0 mm
10:04 29.8 °C 5.8 °C 1005.6 hPa WNW 11.1 km/h 8.4 km/h 22 % 0 mm
10:09 30 °C 5.3 °C 1005.6 hPa NW 13 km/h 9.7 km/h 21 % 0 mm
10:14 30.3 °C 5.6 °C 1005.6 hPa NW 13 km/h 6 km/h 21 % 0 mm
10:19 30.6 °C 5.7 °C 1005.6 hPa NW 16.7 km/h 6.9 km/h 21 % 0 mm
10:24 30.8 °C 6 °C 1005.6 hPa NW 9.7 km/h 8.2 km/h 21 % 0 mm
10:29 30.8 °C 6.7 °C 1005.6 hPa NW 14.5 km/h 6.3 km/h 22 % 0 mm
10:34 30.9 °C 6.7 °C 1005.6 hPa NW 16.7 km/h 12.4 km/h 22 % 0 mm
10:39 31.1 °C 6.9 °C 1005.6 hPa NW 16.1 km/h 12.7 km/h 22 % 0 mm
10:44 31.2 °C 6.9 °C 1005.6 hPa NW 14.8 km/h 10.3 km/h 22 % 0 mm
10:49 31.5 °C 7.2 °C 1005.6 hPa NNW 16.7 km/h 14 km/h 22 % 0 mm
10:54 31.7 °C 7.3 °C 1005.3 hPa NNW 18.5 km/h 10.1 km/h 22 % 0 mm
10:59 31.9 °C 6.8 °C 1005.3 hPa NNW 14.5 km/h 10.5 km/h 21 % 0 mm
11:04 32.2 °C 6.4 °C 1005.3 hPa North 11.1 km/h 8.5 km/h 20 % 0 mm
11:09 32.4 °C 6.6 °C 1005.3 hPa North 16.7 km/h 8 km/h 20 % 0 mm
11:14 32.3 °C 6.4 °C 1005.3 hPa North 16.7 km/h 11.3 km/h 20 % 0 mm
11:19 32.4 °C 7.3 °C 1005 hPa NNW 12.9 km/h 6.9 km/h 21 % 0 mm
11:24 32.2 °C 6.4 °C 1005 hPa NW 24.1 km/h 14 km/h 20 % 0 mm
11:29 32.1 °C 6.3 °C 1005 hPa NNW 18.5 km/h 12.4 km/h 20 % 0 mm
11:34 32.4 °C 6.6 °C 1005 hPa NNW 18.5 km/h 16.7 km/h 20 % 0 mm
11:39 32.3 °C 7.2 °C 1004.6 hPa NW 9.7 km/h 7.9 km/h 21 % 0 mm
11:44 32.4 °C 7.3 °C 1004.6 hPa NNW 24.1 km/h 14.8 km/h 21 % 0 mm
11:49 32.9 °C 7.7 °C 1004.6 hPa WNW 12.9 km/h 8.2 km/h 21 % 0 mm
11:54 33.2 °C 7.2 °C 1004.6 hPa NNW 24.1 km/h 14.6 km/h 20 % 0 mm
11:59 33.5 °C 7.4 °C 1004.3 hPa NNW 20.4 km/h 10.3 km/h 20 % 0 mm
12:04 33.7 °C 7.7 °C 1004.3 hPa NNW 14.5 km/h 14 km/h 20 % 0 mm
12:09 33.7 °C 7.7 °C 1004.3 hPa NNW 25.9 km/h 21.4 km/h 20 % 0 mm
12:14 33.8 °C 7.7 °C 1004.3 hPa North 20.4 km/h 15.4 km/h 20 % 0 mm
12:19 33.9 °C 7.8 °C 1004.3 hPa NW 40.7 km/h 14.2 km/h 20 % 0 mm
12:24 33.8 °C 7.7 °C 1003.9 hPa NNE 29.6 km/h 15 km/h 20 % 0 mm
12:29 34.2 °C 7.3 °C 1003.9 hPa NW 24.1 km/h 14.6 km/h 19 % 0 mm
12:34 34.1 °C 7.9 °C 1003.6 hPa NNW 16.7 km/h 12.7 km/h 20 % 0 mm
12:39 34.1 °C 7.2 °C 1003.6 hPa North 29.6 km/h 18.2 km/h 19 % 0 mm
12:44 34.2 °C 7.3 °C 1003.6 hPa NW 27.8 km/h 17.9 km/h 19 % 0 mm
12:49 34.2 °C 7.3 °C 1003.6 hPa NW 22.2 km/h 15.3 km/h 19 % 0 mm
12:54 34.4 °C 8.2 °C 1003.3 hPa NNW 19.3 km/h 18.5 km/h 20 % 0 mm
12:59 34.4 °C 7.5 °C 1003.3 hPa North 20.4 km/h 10.9 km/h 19 % 0 mm
13:04 34.4 °C 7.4 °C 1003.3 hPa North 29.6 km/h 16.1 km/h 19 % 0 mm
13:09 34.6 °C 7.6 °C 1002.9 hPa North 18.5 km/h 16.6 km/h 19 % 0 mm
13:14 35 °C 7.9 °C 1002.6 hPa NNE 27.8 km/h 13.7 km/h 19 % 0 mm
13:19 35.3 °C 8.2 °C 1002.6 hPa NNW 33.3 km/h 17.2 km/h 19 % 0 mm
13:24 34.5 °C 8.3 °C 1002.6 hPa NNW 20.4 km/h 15 km/h 20 % 0 mm
13:29 34.3 °C 8.2 °C 1002.6 hPa NNW 18.5 km/h 12.4 km/h 20 % 0 mm
13:34 34.7 °C 8.4 °C 1002.3 hPa WNW 27.8 km/h 15.3 km/h 20 % 0 mm
13:39 35 °C 7.9 °C 1002.3 hPa WNW 27.8 km/h 17.2 km/h 19 % 0 mm
13:44 35.5 °C 7.6 °C 1001.9 hPa WNW 27.8 km/h 22.4 km/h 18 % 0 mm
13:49 35.6 °C 8.4 °C 1001.9 hPa NW 24.1 km/h 17.4 km/h 19 % 0 mm
13:54 35.3 °C 7.4 °C 1001.9 hPa NW 16.1 km/h 13.4 km/h 18 % 0 mm
13:59 34.6 °C 7.6 °C 1001.9 hPa North 20.4 km/h 16.1 km/h 19 % 0 mm
14:04 34.3 °C 8.1 °C 1001.9 hPa North 25.9 km/h 16.4 km/h 20 % 0 mm
14:09 33.7 °C 8.3 °C 1002.3 hPa NE 43.5 km/h 20.8 km/h 21 % 0 mm
14:14 33.3 °C 10 °C 1001.9 hPa NNE 31.5 km/h 13.2 km/h 24 % 0 mm
14:19 33.2 °C 10.6 °C 1001.6 hPa North 16.7 km/h 9.7 km/h 25 % 0 mm
14:24 33.3 °C 9.4 °C 1001.2 hPa NNW 18.5 km/h 15 km/h 23 % 0 mm
14:29 33.6 °C 9.6 °C 1001.2 hPa North 20.4 km/h 14.8 km/h 23 % 0 mm
14:34 34 °C 9.3 °C 1001.2 hPa NW 25.7 km/h 13.8 km/h 22 % 0 mm
14:39 33.9 °C 9.9 °C 1000.9 hPa NNW 20.4 km/h 14.8 km/h 23 % 0 mm
14:44 34.1 °C 9.4 °C 1000.9 hPa North 18.5 km/h 10 km/h 22 % 0 mm
14:49 34.7 °C 9.9 °C 1000.6 hPa North 14.5 km/h 7.4 km/h 22 % 0 mm
14:54 35.4 °C 10.5 °C 1000.6 hPa North 18.5 km/h 12.4 km/h 22 % 0 mm
14:59 35.7 °C 10 °C 1000.6 hPa North 24.1 km/h 17.2 km/h 21 % 0 mm
15:04 35.7 °C 9.9 °C 1000.2 hPa NW 20.4 km/h 15.6 km/h 21 % 0 mm
15:09 35.9 °C 10.2 °C 1000.2 hPa WNW 31.5 km/h 21.4 km/h 21 % 0 mm
15:14 36.4 °C 9.9 °C 999.9 hPa NW 29.6 km/h 27.2 km/h 20 % 0 mm
15:19 36.5 °C 10.7 °C 999.5 hPa WNW 33.3 km/h 17.2 km/h 21 % 0 mm
15:24 36.7 °C 10.1 °C 999.5 hPa NW 27.4 km/h 22.9 km/h 20 % 0 mm
15:29 36.7 °C 10.1 °C 999.5 hPa NW 27.8 km/h 19.2 km/h 20 % 0 mm
15:34 36.1 °C 9.6 °C 999.2 hPa West 31.5 km/h 15.8 km/h 20 % 0 mm
15:39 36.4 °C 10.6 °C 999.2 hPa NW 31.5 km/h 18.3 km/h 21 % 0 mm
15:44 37.1 °C 10.4 °C 998.9 hPa NW 25.9 km/h 20.3 km/h 20 % 0 mm
15:49 37.2 °C 9.7 °C 998.9 hPa North 42.6 km/h 27.4 km/h 19 % 0 mm
15:54 37.2 °C 10.5 °C 998.9 hPa NW 27.8 km/h 20.3 km/h 20 % 0 mm
15:59 37.1 °C 8.8 °C 998.5 hPa NW 24.1 km/h 17.4 km/h 18 % 0 mm
16:04 37.3 °C 8.1 °C 998.5 hPa NW 25.9 km/h 29 km/h 17 % 0 mm
16:09 37.2 °C 8.1 °C 998.5 hPa NW 42.6 km/h 30.1 km/h 17 % 0 mm
16:14 37.3 °C 8.1 °C 998.2 hPa NW 38.9 km/h 22.5 km/h 17 % 0 mm
16:19 37.3 °C 8.1 °C 998.2 hPa WNW 42.6 km/h 22.2 km/h 17 % 0 mm
16:24 37.2 °C 8.9 °C 998.2 hPa NNW 31.5 km/h 20.4 km/h 18 % 0 mm
16:29 37.2 °C 8.1 °C 997.9 hPa WNW 38.9 km/h 24.1 km/h 17 % 0 mm
16:34 37.5 °C 8.3 °C 997.9 hPa WNW 37 km/h 27.2 km/h 17 % 0 mm
16:39 36.7 °C 9.3 °C 997.9 hPa NW 29.6 km/h 18.2 km/h 19 % 0 mm
16:44 36.9 °C 9.4 °C 997.5 hPa North 25.9 km/h 16.3 km/h 19 % 0 mm
16:49 37.4 °C 9.1 °C 997.5 hPa NW 33.3 km/h 22.5 km/h 18 % 0 mm
16:54 37.2 °C 8.9 °C 997.5 hPa NW 37 km/h 30.6 km/h 18 % 0 mm
16:59 37.1 °C 8.8 °C 997.5 hPa NW 37 km/h 25.9 km/h 18 % 0 mm
17:04 36.8 °C 9.4 °C 997.5 hPa NW 22.5 km/h 14.6 km/h 19 % 0 mm
17:09 37.2 °C 8.9 °C 997.5 hPa NW 31.5 km/h 21.7 km/h 18 % 0 mm
17:14 37.6 °C 8.3 °C 997.2 hPa WNW 42.6 km/h 18.5 km/h 17 % 0 mm
17:19 37.6 °C 7.4 °C 997.2 hPa NW 42.6 km/h 23.2 km/h 16 % 0 mm
17:24 37.3 °C 7.3 °C 997.2 hPa West 33.3 km/h 24.8 km/h 16 % 0 mm
17:29 37.2 °C 8.1 °C 997.2 hPa NW 20.4 km/h 15.6 km/h 17 % 0 mm
17:34 37.6 °C 8.3 °C 997.2 hPa North 44.4 km/h 24.3 km/h 17 % 0 mm
17:39 37.6 °C 8.3 °C 997.2 hPa West 37 km/h 23.5 km/h 17 % 0 mm
17:44 37.9 °C 8.6 °C 996.8 hPa NNW 22.2 km/h 15.9 km/h 17 % 0 mm
17:49 37.8 °C 8.6 °C 997.2 hPa North 25.9 km/h 16.7 km/h 17 % 0 mm
17:54 37.3 °C 8.2 °C 996.8 hPa WNW 33.3 km/h 18.8 km/h 17 % 0 mm
17:59 37.2 °C 8.1 °C 997.2 hPa NW 35.4 km/h 26.6 km/h 17 % 0 mm
18:04 37.3 °C 8.1 °C 997.2 hPa West 32.2 km/h 21.4 km/h 17 % 0 mm
18:09 35.8 °C 9.4 °C 998.2 hPa SSE 42.6 km/h 34.6 km/h 20 % 0 mm
18:14 30.2 °C 9.7 °C 998.5 hPa SW 46.3 km/h 33.8 km/h 28 % 0 mm
18:19 28.5 °C 9.7 °C 998.9 hPa SSW 37 km/h 27.4 km/h 31 % 0 mm
18:24 28.1 °C 9.4 °C 999.2 hPa SW 37 km/h 24.1 km/h 31 % 0 mm
18:29 27.5 °C 9.3 °C 998.9 hPa South 42.6 km/h 30.4 km/h 32 % 0 mm
18:34 27.2 °C 9.6 °C 998.9 hPa SSW 31.5 km/h 20 km/h 33 % 0 mm
18:39 27.2 °C 9.6 °C 999.2 hPa North 35.2 km/h 21.9 km/h 33 % 0 mm
18:44 27 °C 9.8 °C 999.2 hPa South 40.7 km/h 22.2 km/h 34 % 0 mm
18:49 26.8 °C 9.6 °C 999.2 hPa SSW 29.6 km/h 26.6 km/h 34 % 0 mm
18:54 26.5 °C 9.3 °C 999.5 hPa SW 33.3 km/h 16.1 km/h 34 % 0 mm
18:59 26.8 °C 9.6 °C 999.9 hPa SSW 19.3 km/h 16.1 km/h 34 % 0 mm
19:04 26.6 °C 9.8 °C 999.9 hPa SSW 18.5 km/h 13.8 km/h 35 % 0 mm
19:09 26.4 °C 10.1 °C 1000.2 hPa South 18.5 km/h 15.8 km/h 36 % 0 mm
19:14 26.4 °C 10.1 °C 1000.6 hPa South 20.4 km/h 15 km/h 36 % 0 mm
19:19 26.3 °C 10.1 °C 1000.6 hPa SSE 22.2 km/h 14.8 km/h 36 % 0 mm
19:24 26.1 °C 10.3 °C 1000.6 hPa SE 16.7 km/h 15.1 km/h 37 % 0 mm
19:29 25.9 °C 10.1 °C 1000.6 hPa SSW 20.4 km/h 15.9 km/h 37 % 0 mm
19:34 25.8 °C 10 °C 1000.6 hPa South 18.5 km/h 8.2 km/h 37 % 0 mm
19:39 25.6 °C 9.8 °C 1000.6 hPa South 14.8 km/h 11.3 km/h 37 % 0 mm
19:44 25.5 °C 9.7 °C 1000.6 hPa South 19.3 km/h 15.6 km/h 37 % 0 mm
19:49 25.3 °C 9.6 °C 1000.6 hPa SSE 16.7 km/h 7.6 km/h 37 % 0 mm
19:54 25.2 °C 9.5 °C 1000.6 hPa South 20.4 km/h 16.1 km/h 37 % 0 mm
19:59 25.1 °C 9.7 °C 1000.6 hPa SSE 16.7 km/h 12.7 km/h 38 % 0 mm
20:04 24.9 °C 9.7 °C 1000.9 hPa South 18.5 km/h 8.9 km/h 38 % 0 mm
20:09 24.8 °C 9.5 °C 1001.2 hPa SSE 16.7 km/h 11.1 km/h 38 % 0 mm
20:14 24.7 °C 9.4 °C 1001.6 hPa SE 13 km/h 10.8 km/h 38 % 0 mm
20:19 24.6 °C 9.3 °C 1001.6 hPa SE 16.7 km/h 11.4 km/h 38 % 0 mm
20:24 24.5 °C 9.2 °C 1001.6 hPa SE 9.3 km/h 8.9 km/h 38 % 0 mm
20:29 24.3 °C 9.1 °C 1001.2 hPa SE 12.9 km/h 8.2 km/h 38 % 0 mm
20:34 24.2 °C 8.9 °C 1001.2 hPa SE 9.7 km/h 8.5 km/h 38 % 0 mm
20:39 24.1 °C 8.8 °C 1001.6 hPa SSE 13 km/h 9.2 km/h 38 % 0 mm
20:44 23.8 °C 9.1 °C 1001.9 hPa South 14.8 km/h 7.1 km/h 39 % 0 mm
20:49 23.7 °C 8.9 °C 1001.9 hPa SSE 11.1 km/h 1.4 km/h 39 % 0 mm
20:54 23.4 °C 8.7 °C 1001.9 hPa SSE 7.4 km/h 1.8 km/h 39 % 0 mm
20:59 23.2 °C 8.8 °C 1001.9 hPa SSE 11.1 km/h 2.3 km/h 40 % 0 mm
21:04 22.9 °C 8.6 °C 1001.9 hPa SSE 7.4 km/h 5.8 km/h 40 % 0 mm
21:09 22.8 °C 8.4 °C 1001.9 hPa SSE 5.6 km/h 2.3 km/h 40 % 0 mm
21:14 22.6 °C 8.6 °C 1001.9 hPa SSE 9.3 km/h 2.9 km/h 41 % 0 mm
21:19 22.3 °C 8.4 °C 1001.9 hPa South 6.4 km/h 2.3 km/h 41 % 0 mm
21:24 22.2 °C 8.3 °C 1001.9 hPa SSE 5.6 km/h 1.6 km/h 41 % 0 mm
21:29 22 °C 7.8 °C 1001.9 hPa SSE 6.4 km/h 5.3 km/h 40 % 0 mm
21:34 21.9 °C 8.1 °C 1002.3 hPa SSE 9.3 km/h 2.7 km/h 41 % 0 mm
21:39 21.8 °C 8 °C 1001.9 hPa SSE 7.4 km/h 3.9 km/h 41 % 0 mm
21:44 21.7 °C 7.9 °C 1002.3 hPa SSE 6.4 km/h 4.8 km/h 41 % 0 mm
21:49 21.6 °C 7.8 °C 1002.3 hPa SSE 9.3 km/h 3.2 km/h 41 % 0 mm
21:54 21.5 °C 8.1 °C 1002.3 hPa SSE 7.4 km/h 3.9 km/h 42 % 0 mm
21:59 21.4 °C 7.9 °C 1002.3 hPa SSE 9.3 km/h 4.2 km/h 42 % 0 mm
22:04 21.3 °C 7.9 °C 1002.3 hPa SSE 5.6 km/h 3.1 km/h 42 % 0 mm
22:09 21.2 °C 7.8 °C 1001.9 hPa Calm     42 % 0 mm
22:14 21.1 °C 8 °C 1001.9 hPa Calm     43 % 0 mm
22:19 20.7 °C 7.7 °C 1002.3 hPa SSE 1.6 km/h 0.6 km/h 43 % 0 mm
22:24 20.4 °C 7.8 °C 1002.6 hPa SSE 6.4 km/h 5.5 km/h 44 % 0 mm
22:29 20.4 °C 7.8 °C 1002.6 hPa SSE 9.3 km/h 6.8 km/h 44 % 0 mm
22:34 20.6 °C 7.9 °C 1002.6 hPa South 13 km/h 9.2 km/h 44 % 0 mm
22:39 20.7 °C 8 °C 1002.6 hPa South 9.3 km/h 6.1 km/h 44 % 0 mm
22:44 20.6 °C 7.9 °C 1002.6 hPa South 7.4 km/h 8.2 km/h 44 % 0 mm
22:49 20.6 °C 7.9 °C 1002.6 hPa South 7.4 km/h 5.3 km/h 44 % 0 mm
22:54 20.5 °C 8.2 °C 1002.9 hPa SSE 11.1 km/h 9.8 km/h 45 % 0 mm
22:59 20.3 °C 8 °C 1002.9 hPa SSE 11.1 km/h 5.3 km/h 45 % 0 mm
23:04 20.2 °C 8.2 °C 1002.9 hPa South 11.3 km/h 8.2 km/h 46 % 0 mm
23:09 20.1 °C 8.1 °C 1002.9 hPa South 14.8 km/h 5.8 km/h 46 % 0 mm
23:14 20 °C 8 °C 1002.9 hPa South 9.3 km/h 3.5 km/h 46 % 0 mm
23:19 19.9 °C 8.2 °C 1002.6 hPa South 5.6 km/h 3.1 km/h 47 % 0 mm
23:24 19.7 °C 8.4 °C 1002.9 hPa South 9.7 km/h 8.5 km/h 48 % 0 mm
23:29 19.7 °C 8.3 °C 1003.3 hPa South 11.3 km/h 8.7 km/h 48 % 0 mm
23:34 19.6 °C 8.2 °C 1003.3 hPa South 16.7 km/h 9.3 km/h 48 % 0 mm
23:39 19.4 °C 8.1 °C 1003.3 hPa SSW 16.7 km/h 10.6 km/h 48 % 0 mm
23:44 19.2 °C 8.2 °C 1003.3 hPa South 13 km/h 9.3 km/h 49 % 0 mm
23:49 18.9 °C 8.6 °C 1003.6 hPa South 16.7 km/h 9.3 km/h 51 % 0 mm
23:54 18.6 °C 9.6 °C 1003.6 hPa SSW 16.7 km/h 10.5 km/h 56 % 0 mm
23:59 18.2 °C 10.3 °C 1003.6 hPa South 18.5 km/h 8.7 km/h 60 % 0 mm
Ararat Weather
Compliments of Weather Underground - 2.25 mb
Click here to send mail.


ABOUT

Live weather data from Ararat, Victoria, Australia, 3377
Data uploaded from Cumulus every 5 minutes to Weather Underground.
This site then downloads the raw data for formatting and display.
Metric and imperial data can be displayed. Graphs and historical data available.
Includes Sun and Moon times and rain image live from BOM.

Check out Ararat Weather on Facebook, Twitter and Google +

Help support ongoing costs by checking out the ads





Follow @AraratWeather